sensor_id;sensor_type;location;lat;lon;timestamp;temperature;humidity
13742;DHT22;8461;52.356;10.704;2023-01-29T00:00:07;-1.20;99.90
13742;DHT22;8461;52.356;10.704;2023-01-29T00:02:37;-1.20;99.90
13742;DHT22;8461;52.356;10.704;2023-01-29T00:05:04;-1.30;99.90
13742;DHT22;8461;52.356;10.704;2023-01-29T00:07:30;-1.30;99.90
13742;DHT22;8461;52.356;10.704;2023-01-29T00:09:56;-1.30;99.90
13742;DHT22;8461;52.356;10.704;2023-01-29T00:12:22;-1.30;99.90
13742;DHT22;8461;52.356;10.704;2023-01-29T00:14:47;-1.30;99.90
13742;DHT22;8461;52.356;10.704;2023-01-29T00:17:13;-1.30;99.90
13742;DHT22;8461;52.356;10.704;2023-01-29T00:19:38;-1.40;99.90
13742;DHT22;8461;52.356;10.704;2023-01-29T00:22:04;-1.50;99.90
13742;DHT22;8461;52.356;10.704;2023-01-29T00:24:29;-1.40;99.90
13742;DHT22;8461;52.356;10.704;2023-01-29T00:26:55;-1.50;99.90
13742;DHT22;8461;52.356;10.704;2023-01-29T00:29:20;-1.50;99.90
13742;DHT22;8461;52.356;10.704;2023-01-29T00:31:46;-1.50;99.90
13742;DHT22;8461;52.356;10.704;2023-01-29T00:34:12;-1.50;99.90
13742;DHT22;8461;52.356;10.704;2023-01-29T00:36:37;-1.40;99.90
13742;DHT22;8461;52.356;10.704;2023-01-29T00:39:03;-1.40;99.90
13742;DHT22;8461;52.356;10.704;2023-01-29T00:41:35;-1.30;99.90
13742;DHT22;8461;52.356;10.704;2023-01-29T00:44:20;-1.30;99.90
13742;DHT22;8461;52.356;10.704;2023-01-29T00:47:04;-1.30;99.90
13742;DHT22;8461;52.356;10.704;2023-01-29T00:49:50;-1.40;99.90
13742;DHT22;8461;52.356;10.704;2023-01-29T00:52:15;-1.40;99.90
13742;DHT22;8461;52.356;10.704;2023-01-29T00:54:58;-1.30;99.90
13742;DHT22;8461;52.356;10.704;2023-01-29T00:57:26;-1.40;99.90
13742;DHT22;8461;52.356;10.704;2023-01-29T00:59:52;-1.40;99.90
13742;DHT22;8461;52.356;10.704;2023-01-29T01:02:17;-1.40;99.90
13742;DHT22;8461;52.356;10.704;2023-01-29T01:05:02;-1.30;99.90
13742;DHT22;8461;52.356;10.704;2023-01-29T01:07:30;-1.30;99.90
13742;DHT22;8461;52.356;10.704;2023-01-29T01:09:56;-1.40;99.90
13742;DHT22;8461;52.356;10.704;2023-01-29T01:12:40;-1.40;99.90
13742;DHT22;8461;52.356;10.704;2023-01-29T01:15:05;-1.40;99.90
13742;DHT22;8461;52.356;10.704;2023-01-29T01:17:31;-1.40;99.90
13742;DHT22;8461;52.356;10.704;2023-01-29T01:19:57;-1.40;99.90
13742;DHT22;8461;52.356;10.704;2023-01-29T01:22:22;-1.40;99.90
13742;DHT22;8461;52.356;10.704;2023-01-29T01:24:48;-1.40;99.90
13742;DHT22;8461;52.356;10.704;2023-01-29T01:27:13;-1.40;99.90
13742;DHT22;8461;52.356;10.704;2023-01-29T01:29:39;-1.30;99.90
13742;DHT22;8461;52.356;10.704;2023-01-29T01:32:05;-1.30;99.90
13742;DHT22;8461;52.356;10.704;2023-01-29T01:34:31;-1.20;99.90
13742;DHT22;8461;52.356;10.704;2023-01-29T01:36:56;-1.20;99.90
13742;DHT22;8461;52.356;10.704;2023-01-29T01:39:23;-1.20;99.90
13742;DHT22;8461;52.356;10.704;2023-01-29T01:41:49;-1.20;99.90
13742;DHT22;8461;52.356;10.704;2023-01-29T01:44:51;-1.20;99.90
13742;DHT22;8461;52.356;10.704;2023-01-29T01:47:21;-1.20;99.90
13742;DHT22;8461;52.356;10.704;2023-01-29T01:49:48;-1.20;99.90
13742;DHT22;8461;52.356;10.704;2023-01-29T01:52:14;-1.10;99.90
13742;DHT22;8461;52.356;10.704;2023-01-29T01:54:42;-1.10;99.90
13742;DHT22;8461;52.356;10.704;2023-01-29T01:57:16;-1.10;99.90
13742;DHT22;8461;52.356;10.704;2023-01-29T01:59:48;-1.00;99.90
13742;DHT22;8461;52.356;10.704;2023-01-29T02:02:17;-1.00;99.90
13742;DHT22;8461;52.356;10.704;2023-01-29T02:05:01;-1.00;99.90
13742;DHT22;8461;52.356;10.704;2023-01-29T02:07:46;-0.90;99.90
13742;DHT22;8461;52.356;10.704;2023-01-29T02:10:40;-0.90;99.90
13742;DHT22;8461;52.356;10.704;2023-01-29T02:13:06;-0.90;99.90
13742;DHT22;8461;52.356;10.704;2023-01-29T02:15:33;-0.90;99.90
13742;DHT22;8461;52.356;10.704;2023-01-29T02:17:58;-0.80;99.90
13742;DHT22;8461;52.356;10.704;2023-01-29T02:20:27;-0.80;99.90
13742;DHT22;8461;52.356;10.704;2023-01-29T02:28:50;-0.70;99.90
13742;DHT22;8461;52.356;10.704;2023-01-29T02:34:08;-0.70;99.90
13742;DHT22;8461;52.356;10.704;2023-01-29T02:36:50;-0.70;99.90
13742;DHT22;8461;52.356;10.704;2023-01-29T02:39:31;-0.70;99.90
13742;DHT22;8461;52.356;10.704;2023-01-29T02:45:34;-0.60;99.90
13742;DHT22;8461;52.356;10.704;2023-01-29T02:48:03;-0.60;99.90
13742;DHT22;8461;52.356;10.704;2023-01-29T02:50:44;-0.60;99.90
13742;DHT22;8461;52.356;10.704;2023-01-29T02:53:15;-0.50;99.90
13742;DHT22;8461;52.356;10.704;2023-01-29T02:55:42;-0.40;99.90
13742;DHT22;8461;52.356;10.704;2023-01-29T02:58:14;-0.40;99.90
13742;DHT22;8461;52.356;10.704;2023-01-29T03:00:44;-0.40;99.90
13742;DHT22;8461;52.356;10.704;2023-01-29T03:03:20;-0.40;99.90
13742;DHT22;8461;52.356;10.704;2023-01-29T03:06:02;-0.40;99.90
13742;DHT22;8461;52.356;10.704;2023-01-29T03:08:41;-0.40;99.90
13742;DHT22;8461;52.356;10.704;2023-01-29T03:11:11;-0.30;99.90
13742;DHT22;8461;52.356;10.704;2023-01-29T03:13:55;-0.30;99.90
13742;DHT22;8461;52.356;10.704;2023-01-29T03:19:07;-0.30;99.90
13742;DHT22;8461;52.356;10.704;2023-01-29T03:21:42;-0.30;99.90
13742;DHT22;8461;52.356;10.704;2023-01-29T03:24:21;-0.30;99.90
13742;DHT22;8461;52.356;10.704;2023-01-29T03:27:09;-0.30;99.90
13742;DHT22;8461;52.356;10.704;2023-01-29T03:29:56;-0.20;99.90
13742;DHT22;8461;52.356;10.704;2023-01-29T03:32:42;-0.30;99.90
13742;DHT22;8461;52.356;10.704;2023-01-29T03:35:09;-0.40;99.90
13742;DHT22;8461;52.356;10.704;2023-01-29T03:37:45;-0.40;99.90
13742;DHT22;8461;52.356;10.704;2023-01-29T03:40:12;-0.50;99.90
13742;DHT22;8461;52.356;10.704;2023-01-29T03:50:37;-0.60;99.90
13742;DHT22;8461;52.356;10.704;2023-01-29T03:56:14;-0.50;99.90
13742;DHT22;8461;52.356;10.704;2023-01-29T03:59:05;-0.50;99.90
13742;DHT22;8461;52.356;10.704;2023-01-29T04:01:43;-0.60;99.90
13742;DHT22;8461;52.356;10.704;2023-01-29T04:04:20;-0.60;99.90
13742;DHT22;8461;52.356;10.704;2023-01-29T04:06:49;-0.60;99.90
13742;DHT22;8461;52.356;10.704;2023-01-29T04:09:28;-0.60;99.90
13742;DHT22;8461;52.356;10.704;2023-01-29T04:12:06;-0.60;99.90
13742;DHT22;8461;52.356;10.704;2023-01-29T04:14:33;-0.60;99.90
13742;DHT22;8461;52.356;10.704;2023-01-29T04:17:01;-0.70;99.90
13742;DHT22;8461;52.356;10.704;2023-01-29T04:19:28;-0.70;99.90
13742;DHT22;8461;52.356;10.704;2023-01-29T04:22:09;-0.70;99.90
13742;DHT22;8461;52.356;10.704;2023-01-29T04:24:37;-0.70;99.90
13742;DHT22;8461;52.356;10.704;2023-01-29T04:27:06;-0.70;99.90
13742;DHT22;8461;52.356;10.704;2023-01-29T04:29:48;-0.70;99.90
13742;DHT22;8461;52.356;10.704;2023-01-29T04:32:22;-0.70;99.90
13742;DHT22;8461;52.356;10.704;2023-01-29T04:35:00;-0.70;99.90
13742;DHT22;8461;52.356;10.704;2023-01-29T04:37:35;-0.70;99.90
13742;DHT22;8461;52.356;10.704;2023-01-29T04:40:19;-0.70;99.90
13742;DHT22;8461;52.356;10.704;2023-01-29T04:45:51;-0.70;99.90
13742;DHT22;8461;52.356;10.704;2023-01-29T04:48:29;-0.70;99.90
13742;DHT22;8461;52.356;10.704;2023-01-29T04:54:01;-0.70;99.90
13742;DHT22;8461;52.356;10.704;2023-01-29T04:56:38;-0.70;99.90
13742;DHT22;8461;52.356;10.704;2023-01-29T04:59:10;-0.70;99.90
13742;DHT22;8461;52.356;10.704;2023-01-29T05:01:38;-0.70;99.90
13742;DHT22;8461;52.356;10.704;2023-01-29T05:04:10;-0.70;99.90
13742;DHT22;8461;52.356;10.704;2023-01-29T05:06:38;-0.80;99.90
13742;DHT22;8461;52.356;10.704;2023-01-29T05:09:04;-0.80;99.90
13742;DHT22;8461;52.356;10.704;2023-01-29T05:11:32;-0.90;99.90
13742;DHT22;8461;52.356;10.704;2023-01-29T05:14:01;-0.90;99.90
13742;DHT22;8461;52.356;10.704;2023-01-29T05:16:33;-0.90;99.90
13742;DHT22;8461;52.356;10.704;2023-01-29T05:19:10;-0.90;99.90
13742;DHT22;8461;52.356;10.704;2023-01-29T05:21:37;-1.00;99.90
13742;DHT22;8461;52.356;10.704;2023-01-29T05:24:12;-1.00;99.90
13742;DHT22;8461;52.356;10.704;2023-01-29T05:26:38;-1.10;99.90
13742;DHT22;8461;52.356;10.704;2023-01-29T05:29:22;-1.10;99.90
13742;DHT22;8461;52.356;10.704;2023-01-29T05:31:48;-1.10;99.90
13742;DHT22;8461;52.356;10.704;2023-01-29T05:34:13;-1.10;99.90
13742;DHT22;8461;52.356;10.704;2023-01-29T05:36:39;-1.10;99.90
13742;DHT22;8461;52.356;10.704;2023-01-29T05:39:04;-1.10;99.90
13742;DHT22;8461;52.356;10.704;2023-01-29T05:41:30;-1.10;99.90
13742;DHT22;8461;52.356;10.704;2023-01-29T05:43:55;-1.00;99.90
13742;DHT22;8461;52.356;10.704;2023-01-29T05:46:21;-1.10;99.90
13742;DHT22;8461;52.356;10.704;2023-01-29T05:48:47;-1.10;99.90
13742;DHT22;8461;52.356;10.704;2023-01-29T05:51:12;-1.10;99.90
13742;DHT22;8461;52.356;10.704;2023-01-29T05:53:38;-1.10;99.90
13742;DHT22;8461;52.356;10.704;2023-01-29T05:56:04;-1.10;99.90
13742;DHT22;8461;52.356;10.704;2023-01-29T05:58:30;-1.10;99.90
13742;DHT22;8461;52.356;10.704;2023-01-29T06:00:56;-1.10;99.90
13742;DHT22;8461;52.356;10.704;2023-01-29T06:03:22;-1.10;99.90
13742;DHT22;8461;52.356;10.704;2023-01-29T06:05:47;-1.00;99.90
13742;DHT22;8461;52.356;10.704;2023-01-29T06:08:13;-0.90;99.90
13742;DHT22;8461;52.356;10.704;2023-01-29T06:10:38;-0.90;99.90
13742;DHT22;8461;52.356;10.704;2023-01-29T06:13:04;-0.80;99.90
13742;DHT22;8461;52.356;10.704;2023-01-29T06:15:29;-0.80;99.90
13742;DHT22;8461;52.356;10.704;2023-01-29T06:17:56;-0.70;99.90
13742;DHT22;8461;52.356;10.704;2023-01-29T06:20:23;-0.70;99.90
13742;DHT22;8461;52.356;10.704;2023-01-29T06:22:48;-0.50;99.90
13742;DHT22;8461;52.356;10.704;2023-01-29T06:25:14;-0.50;99.90
13742;DHT22;8461;52.356;10.704;2023-01-29T06:27:39;-0.50;99.90
13742;DHT22;8461;52.356;10.704;2023-01-29T06:30:06;-0.50;99.90
13742;DHT22;8461;52.356;10.704;2023-01-29T06:32:33;-0.50;99.90
13742;DHT22;8461;52.356;10.704;2023-01-29T06:34:58;-0.40;99.90
13742;DHT22;8461;52.356;10.704;2023-01-29T06:37:24;-0.40;99.90
13742;DHT22;8461;52.356;10.704;2023-01-29T06:39:49;-0.50;99.90
13742;DHT22;8461;52.356;10.704;2023-01-29T06:42:15;-0.50;99.90
13742;DHT22;8461;52.356;10.704;2023-01-29T06:44:40;-0.40;99.90
13742;DHT22;8461;52.356;10.704;2023-01-29T06:47:06;-0.50;99.90
13742;DHT22;8461;52.356;10.704;2023-01-29T06:49:32;-0.50;99.90
13742;DHT22;8461;52.356;10.704;2023-01-29T06:51:57;-0.50;99.90
13742;DHT22;8461;52.356;10.704;2023-01-29T06:54:23;-0.50;99.90
13742;DHT22;8461;52.356;10.704;2023-01-29T06:56:48;-0.50;99.90
13742;DHT22;8461;52.356;10.704;2023-01-29T06:59:14;-0.60;99.90
13742;DHT22;8461;52.356;10.704;2023-01-29T07:01:40;-0.60;99.90
13742;DHT22;8461;52.356;10.704;2023-01-29T07:04:08;-0.50;99.90
13742;DHT22;8461;52.356;10.704;2023-01-29T07:06:34;-0.50;99.90
13742;DHT22;8461;52.356;10.704;2023-01-29T07:08:59;-0.50;99.90
13742;DHT22;8461;52.356;10.704;2023-01-29T07:11:25;-0.50;99.90
13742;DHT22;8461;52.356;10.704;2023-01-29T07:13:50;-0.50;99.90
13742;DHT22;8461;52.356;10.704;2023-01-29T07:16:16;-0.50;99.90
13742;DHT22;8461;52.356;10.704;2023-01-29T07:18:43;-0.50;99.90
13742;DHT22;8461;52.356;10.704;2023-01-29T07:21:08;-0.40;99.90
13742;DHT22;8461;52.356;10.704;2023-01-29T07:23:34;-0.40;99.90
13742;DHT22;8461;52.356;10.704;2023-01-29T07:26:01;-0.40;99.90
13742;DHT22;8461;52.356;10.704;2023-01-29T07:28:27;-0.30;99.90
13742;DHT22;8461;52.356;10.704;2023-01-29T07:30:57;-0.30;99.90
13742;DHT22;8461;52.356;10.704;2023-01-29T07:33:22;-0.30;99.90
13742;DHT22;8461;52.356;10.704;2023-01-29T07:35:48;-0.30;99.90
13742;DHT22;8461;52.356;10.704;2023-01-29T07:38:14;-0.30;99.90
13742;DHT22;8461;52.356;10.704;2023-01-29T07:40:39;-0.20;99.90
13742;DHT22;8461;52.356;10.704;2023-01-29T07:43:06;-0.20;99.90
13742;DHT22;8461;52.356;10.704;2023-01-29T07:45:34;-0.20;99.90
13742;DHT22;8461;52.356;10.704;2023-01-29T07:48:00;-0.20;99.90
13742;DHT22;8461;52.356;10.704;2023-01-29T07:50:26;-0.10;99.90
13742;DHT22;8461;52.356;10.704;2023-01-29T07:52:54;-0.10;99.90
13742;DHT22;8461;52.356;10.704;2023-01-29T07:55:20;-0.10;99.90
13742;DHT22;8461;52.356;10.704;2023-01-29T07:57:46;-0.10;99.90
13742;DHT22;8461;52.356;10.704;2023-01-29T08:00:12;-0.10;99.90
13742;DHT22;8461;52.356;10.704;2023-01-29T08:02:39;-0.10;99.90
13742;DHT22;8461;52.356;10.704;2023-01-29T08:05:05;-0.10;99.90
13742;DHT22;8461;52.356;10.704;2023-01-29T08:07:30;-0.10;99.90
13742;DHT22;8461;52.356;10.704;2023-01-29T08:09:56;-0.10;99.90
13742;DHT22;8461;52.356;10.704;2023-01-29T08:12:22;-0.10;99.90
13742;DHT22;8461;52.356;10.704;2023-01-29T08:14:47;0.00;99.90
13742;DHT22;8461;52.356;10.704;2023-01-29T08:17:13;0.00;99.90
13742;DHT22;8461;52.356;10.704;2023-01-29T08:19:38;0.00;99.90
13742;DHT22;8461;52.356;10.704;2023-01-29T08:22:04;0.00;99.90
13742;DHT22;8461;52.356;10.704;2023-01-29T08:24:31;0.10;99.90
13742;DHT22;8461;52.356;10.704;2023-01-29T08:26:57;0.00;99.90
13742;DHT22;8461;52.356;10.704;2023-01-29T08:29:23;0.10;99.90
13742;DHT22;8461;52.356;10.704;2023-01-29T08:31:48;0.10;99.90
13742;DHT22;8461;52.356;10.704;2023-01-29T08:34:14;0.10;99.90
13742;DHT22;8461;52.356;10.704;2023-01-29T08:36:39;0.10;99.90
13742;DHT22;8461;52.356;10.704;2023-01-29T08:39:05;0.10;99.90
13742;DHT22;8461;52.356;10.704;2023-01-29T08:41:31;0.10;99.90
13742;DHT22;8461;52.356;10.704;2023-01-29T08:43:57;0.10;99.90
13742;DHT22;8461;52.356;10.704;2023-01-29T08:46:24;0.10;99.90
13742;DHT22;8461;52.356;10.704;2023-01-29T08:48:50;0.10;99.90
13742;DHT22;8461;52.356;10.704;2023-01-29T08:51:15;0.20;99.90
13742;DHT22;8461;52.356;10.704;2023-01-29T08:53:41;0.20;99.90
13742;DHT22;8461;52.356;10.704;2023-01-29T08:56:07;0.30;99.90
13742;DHT22;8461;52.356;10.704;2023-01-29T08:58:32;0.30;99.90
13742;DHT22;8461;52.356;10.704;2023-01-29T09:01:05;0.30;99.90
13742;DHT22;8461;52.356;10.704;2023-01-29T09:03:31;0.40;99.90
13742;DHT22;8461;52.356;10.704;2023-01-29T09:05:56;0.40;99.90
13742;DHT22;8461;52.356;10.704;2023-01-29T09:08:22;0.40;99.90
13742;DHT22;8461;52.356;10.704;2023-01-29T09:10:48;0.40;99.90
13742;DHT22;8461;52.356;10.704;2023-01-29T09:13:13;0.40;99.90
13742;DHT22;8461;52.356;10.704;2023-01-29T09:15:39;0.40;99.90
13742;DHT22;8461;52.356;10.704;2023-01-29T09:18:04;0.40;99.90
13742;DHT22;8461;52.356;10.704;2023-01-29T09:20:31;0.40;99.90
13742;DHT22;8461;52.356;10.704;2023-01-29T09:22:56;0.50;99.90
13742;DHT22;8461;52.356;10.704;2023-01-29T09:25:23;0.40;99.90
13742;DHT22;8461;52.356;10.704;2023-01-29T09:27:49;0.40;99.90
13742;DHT22;8461;52.356;10.704;2023-01-29T09:30:14;0.40;99.90
13742;DHT22;8461;52.356;10.704;2023-01-29T09:32:40;0.50;99.90
13742;DHT22;8461;52.356;10.704;2023-01-29T09:35:06;0.40;99.90
13742;DHT22;8461;52.356;10.704;2023-01-29T09:37:32;0.40;99.90
13742;DHT22;8461;52.356;10.704;2023-01-29T09:39:57;0.30;99.90
13742;DHT22;8461;52.356;10.704;2023-01-29T09:42:33;0.30;99.90
13742;DHT22;8461;52.356;10.704;2023-01-29T09:45:22;0.20;99.90
13742;DHT22;8461;52.356;10.704;2023-01-29T09:47:52;0.30;99.90
13742;DHT22;8461;52.356;10.704;2023-01-29T09:50:30;0.30;99.90
13742;DHT22;8461;52.356;10.704;2023-01-29T09:55:52;0.30;99.90
13742;DHT22;8461;52.356;10.704;2023-01-29T10:09:29;0.70;99.90
13742;DHT22;8461;52.356;10.704;2023-01-29T10:12:39;0.70;99.90
13742;DHT22;8461;52.356;10.704;2023-01-29T10:15:22;0.80;99.90
13742;DHT22;8461;52.356;10.704;2023-01-29T10:20:54;0.80;99.90
13742;DHT22;8461;52.356;10.704;2023-01-29T10:23:27;0.70;99.90
13742;DHT22;8461;52.356;10.704;2023-01-29T10:25:55;0.70;99.90
13742;DHT22;8461;52.356;10.704;2023-01-29T10:28:42;0.70;99.90
13742;DHT22;8461;52.356;10.704;2023-01-29T10:31:16;0.70;99.90
13742;DHT22;8461;52.356;10.704;2023-01-29T10:33:50;0.80;99.90
13742;DHT22;8461;52.356;10.704;2023-01-29T10:36:21;0.70;99.90
13742;DHT22;8461;52.356;10.704;2023-01-29T10:38:49;0.70;99.90
13742;DHT22;8461;52.356;10.704;2023-01-29T10:46:54;0.80;99.90
13742;DHT22;8461;52.356;10.704;2023-01-29T11:00:45;0.90;99.90
13742;DHT22;8461;52.356;10.704;2023-01-29T11:03:23;0.90;99.90
13742;DHT22;8461;52.356;10.704;2023-01-29T11:06:14;0.90;99.90
13742;DHT22;8461;52.356;10.704;2023-01-29T11:08:48;0.90;99.90
13742;DHT22;8461;52.356;10.704;2023-01-29T11:11:18;0.90;99.90
13742;DHT22;8461;52.356;10.704;2023-01-29T11:14:01;0.90;99.90
13742;DHT22;8461;52.356;10.704;2023-01-29T11:16:39;0.90;99.90
13742;DHT22;8461;52.356;10.704;2023-01-29T11:19:05;0.90;99.90
13742;DHT22;8461;52.356;10.704;2023-01-29T11:21:30;0.90;99.90
13742;DHT22;8461;52.356;10.704;2023-01-29T11:26:34;0.90;99.90
13742;DHT22;8461;52.356;10.704;2023-01-29T11:29:01;1.00;99.90
13742;DHT22;8461;52.356;10.704;2023-01-29T11:31:34;1.00;99.90
13742;DHT22;8461;52.356;10.704;2023-01-29T11:34:04;1.00;99.90
13742;DHT22;8461;52.356;10.704;2023-01-29T11:36:36;1.10;99.90
13742;DHT22;8461;52.356;10.704;2023-01-29T11:39:20;1.10;99.90
13742;DHT22;8461;52.356;10.704;2023-01-29T11:44:26;1.10;99.90
13742;DHT22;8461;52.356;10.704;2023-01-29T11:46:53;1.20;99.90
13742;DHT22;8461;52.356;10.704;2023-01-29T11:49:33;1.20;99.90
13742;DHT22;8461;52.356;10.704;2023-01-29T11:52:02;1.20;99.90
13742;DHT22;8461;52.356;10.704;2023-01-29T11:54:33;1.30;99.90
13742;DHT22;8461;52.356;10.704;2023-01-29T11:57:02;1.30;99.90
13742;DHT22;8461;52.356;10.704;2023-01-29T11:59:45;1.40;99.90
13742;DHT22;8461;52.356;10.704;2023-01-29T12:04:46;1.30;99.90
13742;DHT22;8461;52.356;10.704;2023-01-29T12:07:15;1.40;99.90
13742;DHT22;8461;52.356;10.704;2023-01-29T12:09:48;1.40;99.90
13742;DHT22;8461;52.356;10.704;2023-01-29T12:12:38;1.40;99.90
13742;DHT22;8461;52.356;10.704;2023-01-29T12:15:22;1.40;99.90
13742;DHT22;8461;52.356;10.704;2023-01-29T12:17:57;1.50;99.90
13742;DHT22;8461;52.356;10.704;2023-01-29T12:20:32;1.50;99.90
13742;DHT22;8461;52.356;10.704;2023-01-29T12:28:20;1.60;99.90
13742;DHT22;8461;52.356;10.704;2023-01-29T12:31:22;1.50;99.90
13742;DHT22;8461;52.356;10.704;2023-01-29T12:39:18;1.60;99.90
13742;DHT22;8461;52.356;10.704;2023-01-29T12:42:01;1.50;99.90
13742;DHT22;8461;52.356;10.704;2023-01-29T12:44:44;1.50;99.90
13742;DHT22;8461;52.356;10.704;2023-01-29T12:47:19;1.60;99.90
13742;DHT22;8461;52.356;10.704;2023-01-29T12:49:50;1.50;99.90
13742;DHT22;8461;52.356;10.704;2023-01-29T12:55:05;1.50;99.90
13742;DHT22;8461;52.356;10.704;2023-01-29T12:57:47;1.50;99.90
13742;DHT22;8461;52.356;10.704;2023-01-29T13:00:17;1.50;99.90
13742;DHT22;8461;52.356;10.704;2023-01-29T13:02:53;1.50;99.90
13742;DHT22;8461;52.356;10.704;2023-01-29T13:08:09;1.50;99.90
13742;DHT22;8461;52.356;10.704;2023-01-29T13:10:42;1.50;99.90
13742;DHT22;8461;52.356;10.704;2023-01-29T13:15:57;1.60;99.90
13742;DHT22;8461;52.356;10.704;2023-01-29T13:21:15;1.50;99.90
13742;DHT22;8461;52.356;10.704;2023-01-29T13:23:47;1.60;99.90
13742;DHT22;8461;52.356;10.704;2023-01-29T13:26:18;1.60;99.90
13742;DHT22;8461;52.356;10.704;2023-01-29T13:28:45;1.60;99.90
13742;DHT22;8461;52.356;10.704;2023-01-29T13:31:25;1.70;99.90
13742;DHT22;8461;52.356;10.704;2023-01-29T13:34:16;1.70;99.90
13742;DHT22;8461;52.356;10.704;2023-01-29T13:36:51;1.70;99.90
13742;DHT22;8461;52.356;10.704;2023-01-29T13:39:32;1.70;99.90
13742;DHT22;8461;52.356;10.704;2023-01-29T13:41:59;1.70;99.90
13742;DHT22;8461;52.356;10.704;2023-01-29T13:47:01;1.80;99.90
13742;DHT22;8461;52.356;10.704;2023-01-29T13:52:26;1.80;99.90
13742;DHT22;8461;52.356;10.704;2023-01-29T13:54:58;1.80;99.90
13742;DHT22;8461;52.356;10.704;2023-01-29T14:07:58;2.00;99.90
13742;DHT22;8461;52.356;10.704;2023-01-29T14:10:26;1.90;99.90
13742;DHT22;8461;52.356;10.704;2023-01-29T14:12:53;2.00;99.90
13742;DHT22;8461;52.356;10.704;2023-01-29T14:15:25;2.00;99.90
13742;DHT22;8461;52.356;10.704;2023-01-29T14:25:48;1.90;99.90
13742;DHT22;8461;52.356;10.704;2023-01-29T14:28:20;1.90;99.90
13742;DHT22;8461;52.356;10.704;2023-01-29T14:30:47;1.90;99.90
13742;DHT22;8461;52.356;10.704;2023-01-29T14:33:27;1.90;99.90
13742;DHT22;8461;52.356;10.704;2023-01-29T14:35:55;1.90;99.90
13742;DHT22;8461;52.356;10.704;2023-01-29T14:38:23;1.90;99.90
13742;DHT22;8461;52.356;10.704;2023-01-29T14:40:50;1.90;99.90
13742;DHT22;8461;52.356;10.704;2023-01-29T14:43:25;1.90;99.90
13742;DHT22;8461;52.356;10.704;2023-01-29T14:45:50;1.90;99.90
13742;DHT22;8461;52.356;10.704;2023-01-29T14:48:37;1.90;99.90
13742;DHT22;8461;52.356;10.704;2023-01-29T14:51:10;1.90;99.90
13742;DHT22;8461;52.356;10.704;2023-01-29T14:53:58;1.80;99.90
13742;DHT22;8461;52.356;10.704;2023-01-29T14:56:31;1.80;99.90
13742;DHT22;8461;52.356;10.704;2023-01-29T14:59:19;1.80;99.90
13742;DHT22;8461;52.356;10.704;2023-01-29T15:01:54;1.80;99.90
13742;DHT22;8461;52.356;10.704;2023-01-29T15:04:23;1.80;99.90
13742;DHT22;8461;52.356;10.704;2023-01-29T15:09:46;1.80;99.90
13742;DHT22;8461;52.356;10.704;2023-01-29T15:12:27;1.80;99.90
13742;DHT22;8461;52.356;10.704;2023-01-29T15:18:07;1.80;99.90
13742;DHT22;8461;52.356;10.704;2023-01-29T15:20:38;1.70;99.90
13742;DHT22;8461;52.356;10.704;2023-01-29T15:23:26;1.70;99.90
13742;DHT22;8461;52.356;10.704;2023-01-29T15:25:55;1.70;99.90
13742;DHT22;8461;52.356;10.704;2023-01-29T15:28:21;1.70;99.90
13742;DHT22;8461;52.356;10.704;2023-01-29T15:30:55;1.70;99.90
13742;DHT22;8461;52.356;10.704;2023-01-29T15:33:22;1.70;99.90
13742;DHT22;8461;52.356;10.704;2023-01-29T15:35:48;1.70;99.90
13742;DHT22;8461;52.356;10.704;2023-01-29T15:38:19;1.70;99.90
13742;DHT22;8461;52.356;10.704;2023-01-29T15:43:43;1.60;99.90
13742;DHT22;8461;52.356;10.704;2023-01-29T15:46:21;1.60;99.90
13742;DHT22;8461;52.356;10.704;2023-01-29T15:48:49;1.70;99.90
13742;DHT22;8461;52.356;10.704;2023-01-29T15:51:17;1.70;99.90
13742;DHT22;8461;52.356;10.704;2023-01-29T15:53:56;1.70;99.90
13742;DHT22;8461;52.356;10.704;2023-01-29T15:56:29;1.70;99.90
13742;DHT22;8461;52.356;10.704;2023-01-29T15:58:58;1.70;99.90
13742;DHT22;8461;52.356;10.704;2023-01-29T16:01:28;1.70;99.90
13742;DHT22;8461;52.356;10.704;2023-01-29T16:03:55;1.70;99.90
13742;DHT22;8461;52.356;10.704;2023-01-29T16:06:22;1.70;99.90
13742;DHT22;8461;52.356;10.704;2023-01-29T16:08:52;1.60;99.90
13742;DHT22;8461;52.356;10.704;2023-01-29T16:11:19;1.60;99.90
13742;DHT22;8461;52.356;10.704;2023-01-29T16:13:47;1.60;99.90
13742;DHT22;8461;52.356;10.704;2023-01-29T16:18:41;1.60;99.90
13742;DHT22;8461;52.356;10.704;2023-01-29T16:21:30;1.60;99.90
13742;DHT22;8461;52.356;10.704;2023-01-29T16:24:03;1.50;99.90
13742;DHT22;8461;52.356;10.704;2023-01-29T16:26:33;1.50;99.90
13742;DHT22;8461;52.356;10.704;2023-01-29T16:29:04;1.50;99.90
13742;DHT22;8461;52.356;10.704;2023-01-29T16:31:31;1.40;99.90
13742;DHT22;8461;52.356;10.704;2023-01-29T16:33:58;1.30;99.90
13742;DHT22;8461;52.356;10.704;2023-01-29T16:36:25;1.30;99.90
13742;DHT22;8461;52.356;10.704;2023-01-29T16:38:59;1.20;99.90
13742;DHT22;8461;52.356;10.704;2023-01-29T16:41:34;1.20;99.90
13742;DHT22;8461;52.356;10.704;2023-01-29T16:46:47;1.20;99.90
13742;DHT22;8461;52.356;10.704;2023-01-29T16:51:50;1.10;99.90
13742;DHT22;8461;52.356;10.704;2023-01-29T16:54:16;1.10;99.90
13742;DHT22;8461;52.356;10.704;2023-01-29T16:56:49;1.10;99.90
13742;DHT22;8461;52.356;10.704;2023-01-29T16:59:18;1.10;99.90
13742;DHT22;8461;52.356;10.704;2023-01-29T17:01:45;1.10;99.90
13742;DHT22;8461;52.356;10.704;2023-01-29T17:04:14;1.10;99.90
13742;DHT22;8461;52.356;10.704;2023-01-29T17:06:43;1.10;99.90
13742;DHT22;8461;52.356;10.704;2023-01-29T17:09:36;1.10;99.90
13742;DHT22;8461;52.356;10.704;2023-01-29T17:12:05;1.10;99.90
13742;DHT22;8461;52.356;10.704;2023-01-29T17:14:32;1.10;99.90
13742;DHT22;8461;52.356;10.704;2023-01-29T17:17:11;1.10;99.90
13742;DHT22;8461;52.356;10.704;2023-01-29T17:19:38;1.10;99.90
13742;DHT22;8461;52.356;10.704;2023-01-29T17:22:03;1.10;99.90
13742;DHT22;8461;52.356;10.704;2023-01-29T17:24:32;1.20;99.90
13742;DHT22;8461;52.356;10.704;2023-01-29T17:26:59;1.20;99.90
13742;DHT22;8461;52.356;10.704;2023-01-29T17:29:28;1.20;99.90
13742;DHT22;8461;52.356;10.704;2023-01-29T17:31:54;1.20;99.90
13742;DHT22;8461;52.356;10.704;2023-01-29T17:34:20;1.20;99.90
13742;DHT22;8461;52.356;10.704;2023-01-29T17:36:46;1.20;99.90
13742;DHT22;8461;52.356;10.704;2023-01-29T17:39:18;1.20;99.90
13742;DHT22;8461;52.356;10.704;2023-01-29T17:41:49;1.20;99.90
13742;DHT22;8461;52.356;10.704;2023-01-29T17:44:16;1.20;99.90
13742;DHT22;8461;52.356;10.704;2023-01-29T17:46:41;1.30;99.90
13742;DHT22;8461;52.356;10.704;2023-01-29T17:51:49;1.30;99.90
13742;DHT22;8461;52.356;10.704;2023-01-29T17:54:15;1.40;99.90
13742;DHT22;8461;52.356;10.704;2023-01-29T17:56:40;1.40;99.90
13742;DHT22;8461;52.356;10.704;2023-01-29T17:59:20;1.40;99.90
13742;DHT22;8461;52.356;10.704;2023-01-29T18:01:47;1.40;99.90
13742;DHT22;8461;52.356;10.704;2023-01-29T18:04:13;1.40;99.90
13742;DHT22;8461;52.356;10.704;2023-01-29T18:06:39;1.40;99.90
13742;DHT22;8461;52.356;10.704;2023-01-29T18:09:05;1.40;99.90
13742;DHT22;8461;52.356;10.704;2023-01-29T18:11:31;1.50;99.90
13742;DHT22;8461;52.356;10.704;2023-01-29T18:13:56;1.50;99.90
13742;DHT22;8461;52.356;10.704;2023-01-29T18:16:24;1.50;99.90